Asolare — ZCDI3 — position and weather

sailwx.info

Track history (hours):
 
Tides and Currents Weather Stations Pressure Air Temp Water Temp Dewpoint Dewpoint Depression Visibility Wind Speed Wind Dir Waves Ship Positions

Asolare

Last reported at 2016-May-27 09:33 UTC. Time now 2016-May-27 10:22 UTC.
Position N 39°48' E 002°42'.

Length 47 m; draft 4.9 m.

Type: Sailing vessel. MMSI: 310413000.

Date/timePositionNaut miles runAvg speedWind from/ knotsBaromVisibWave heightAir tempDewpointWater temp
2016-May-27 09:33N 39°48' E 002°42'0 0.0
2016-May-27 08:33N 39°48' E 002°42'0 0.0
2016-May-27 07:33N 39°48' E 002°42'0 0.0
2016-May-27 06:33N 39°48' E 002°42'0 0.0
2016-May-27 05:33N 39°48' E 002°42'0 0.0
2016-May-27 04:30N 39°48' E 002°42'0 0.0
2016-May-27 03:33N 39°48' E 002°42'0 0.0
2016-May-27 02:33N 39°48' E 002°42'0 0.0
2016-May-27 01:33N 39°48' E 002°42'0 0.0
2016-May-27 00:33N 39°48' E 002°42'0 0.0
2016-May-26 23:33N 39°48' E 002°42'0 0.0
2016-May-26 22:33N 39°48' E 002°42'0 0.0
2016-May-26 21:33N 39°48' E 002°42'0 0.0
2016-May-26 20:33N 39°48' E 002°42'0 0.0
2016-May-26 19:33N 39°48' E 002°42'0 0.0
2016-May-26 18:33N 39°48' E 002°42'0 0.0
2016-May-26 17:33N 39°48' E 002°42'0 0.0
2016-May-26 16:33N 39°48' E 002°42'0 0.0
2016-May-26 15:32N 39°48' E 002°42'0 0.0
2016-May-26 14:33N 39°48' E 002°42'0 0.0
2016-May-26 13:32N 39°48' E 002°42'0 0.0
2016-May-26 12:32N 39°48' E 002°42'0 0.0
2016-May-26 11:33N 39°48' E 002°42'0 0.0
2016-May-26 10:33N 39°48' E 002°42'0 0.0
2016-May-26 09:32N 39°48' E 002°42'0 0.0
2016-May-26 08:32N 39°48' E 002°42'0 0.0
2016-May-26 07:32N 39°48' E 002°42'0 0.0
2016-May-26 06:32N 39°48' E 002°42'0 0.0
2016-May-26 05:32N 39°48' E 002°42'0 0.0
2016-May-26 04:32N 39°48' E 002°42'0 0.0
2016-May-26 03:32N 39°48' E 002°42'0 0.0
2016-May-26 02:32N 39°48' E 002°42'0 0.0
2016-May-26 01:32N 39°48' E 002°42'0 0.0
2016-May-26 00:32N 39°48' E 002°42'0 0.0
2016-May-25 23:32N 39°48' E 002°42'0 0.0
2016-May-25 22:32N 39°48' E 002°42'0 0.0
2016-May-25 21:32N 39°48' E 002°42'0 0.0
2016-May-25 20:32N 39°48' E 002°42'0 0.0
2016-May-25 19:32N 39°48' E 002°42'0 0.0
2016-May-25 18:32N 39°48' E 002°42'0 0.0
2016-May-25 17:29N 39°48' E 002°42'0 0.0
2016-May-25 16:32N 39°48' E 002°42'0 0.0
2016-May-25 15:32N 39°48' E 002°42'0 0.0
2016-May-25 14:32N 39°48' E 002°42'0 0.0
2016-May-25 13:33N 39°48' E 002°42'5 5.4
2016-May-25 12:33N 39°53' E 002°40'1010.4
2016-May-25 11:33N 40°01' E 002°49'1010.3
2016-May-25 10:33N 40°08' E 002°59'9 9.2
2016-May-25 09:33N 40°15' E 002°52'1211.7
2016-May-25 08:33N 40°08' E 002°40'1212.3
2016-May-25 07:33N 39°59' E 002°28'1212.1
2016-May-25 06:33N 39°51' E 002°17'1312.1
2016-May-25 05:29N 39°42' E 002°05'1212.7
2016-May-25 04:33N 39°34' E 001°54'1413.7
2016-May-25 03:33N 39°24' E 001°41'1313.0
2016-May-25 02:33N 39°15' E 001°29'1211.8
2016-May-25 01:33N 39°07' E 001°18'3912.2
2016-May-24 22:21N 38°38' E 000°43'1011.3
2016-May-24 21:30N 38°31' E 000°35'2611.1
2016-May-24 19:11N 38°12' E 000°13'710.7
2016-May-24 18:33N 38°07' E 000°08'1111.1
2016-May-24 17:33N 37°59' W 000°02'1111.1
2016-May-24 16:32N 37°50' W 000°11'1111.1
2016-May-24 15:33N 37°42' W 000°20'1110.8
2016-May-24 14:31N 37°34' W 000°30'1410.9
2016-May-24 13:15N 37°25' W 000°43'1010.4
2016-May-24 12:19N 37°18' W 000°52'5410.7
2016-May-24 07:20N 36°43' W 001°42'3410.4
2016-May-24 04:05N 36°22' W 002°15'15010.4
2016-May-23 13:33N 36°05' W 005°21'3 0.5
2016-May-23 08:18N 36°08' W 005°22'3 4.2
2016-May-23 07:31N 36°06' W 005°19'2 1.6
2016-May-23 06:15N 36°08' W 005°20'0 0.0
2016-May-23 05:21N 36°08' W 005°20'0 0.0
2016-May-23 03:03N 36°08' W 005°19'0 0.0
2016-May-23 00:30N 36°08' W 005°19'0 0.0
2016-May-22 23:33N 36°08' W 005°19'0 0.0
2016-May-22 22:33N 36°08' W 005°19'0 0.0
2016-May-22 21:30N 36°08' W 005°19'0 0.0
2016-May-22 20:24N 36°08' W 005°19'0 0.0
2016-May-22 19:33N 36°08' W 005°20'0 0.0
2016-May-22 18:27N 36°08' W 005°20'0 0.0
2016-May-22 16:28N 36°08' W 005°19'8 9.1
2016-May-22 15:33N 36°01' W 005°24'  
2016-May-19 09:33N 38°02' W 023°33'1110.9
2016-May-19 08:33N 38°03' W 023°47'1110.9
2016-May-19 07:33N 38°04' W 024°00'1111.1
2016-May-19 06:34N 38°05' W 024°15'1111.2
2016-May-19 05:34N 38°05' W 024°29'1110.8
2016-May-19 04:34N 38°06' W 024°42'1111.0
2016-May-19 03:33N 38°07' W 024°56'1110.9
2016-May-19 02:33N 38°08' W 025°10'1111.1
2016-May-19 01:33N 38°09' W 025°24'1111.4
2016-May-19 00:33N 38°10' W 025°39'1111.2
2016-May-18 23:34N 38°11' W 025°53'1111.1
2016-May-18 22:34N 38°12' W 026°07'1110.9
2016-May-18 21:33N 38°13' W 026°21'1111.1
2016-May-18 20:33N 38°14' W 026°35'1111.0
2016-May-18 19:34N 38°16' W 026°49'1111.0
2016-May-18 18:33N 38°17' W 027°02'1110.6
2016-May-18 17:33N 38°18' W 027°16'1111.3
2016-May-18 16:33N 38°19' W 027°30'1111.3
2016-May-18 15:33N 38°20' W 027°44'1111.2
2016-May-18 14:33N 38°21' W 027°59'1211.6
2016-May-18 13:33N 38°22' W 028°13'1111.0
2016-May-18 12:34N 38°24' W 028°27'1110.7
2016-May-18 11:34N 38°32' W 028°37'0 0.5
2016-May-18 10:31N 38°32' W 028°37'0 0.0
2016-May-18 09:31N 38°32' W 028°37'0 0.0
2016-May-18 08:31N 38°32' W 028°37'0 0.0
2016-May-18 07:31N 38°32' W 028°37'0 0.2
2016-May-18 06:30N 38°32' W 028°38'0 0.0
2016-May-18 05:31N 38°32' W 028°38'0 0.0
2016-May-18 04:31N 38°32' W 028°38'0 0.0
2016-May-18 03:27N 38°32' W 028°38'0 0.0
2016-May-18 02:33N 38°32' W 028°38'0 0.0
2016-May-18 01:33N 38°32' W 028°38'0 0.0
2016-May-18 00:33N 38°32' W 028°38'0 0.0
2016-May-17 23:31N 38°32' W 028°38'0 0.0
2016-May-17 22:33N 38°32' W 028°38'0 0.0
2016-May-17 21:34N 38°32' W 028°38'0 0.0
2016-May-17 20:31N 38°32' W 028°38'0 0.0
2016-May-17 16:28N 38°32' W 028°38'0 0.0
2016-May-17 15:30N 38°32' W 028°38'0 0.0
2016-May-17 14:33N 38°32' W 028°38'0 0.0
2016-May-17 13:28N 38°32' W 028°38'0 0.0
2016-May-17 12:33N 38°32' W 028°38'0 0.0
2016-May-17 11:30N 38°32' W 028°38'0 0.0
2016-May-17 10:33N 38°32' W 028°38'0 0.0
2016-May-17 09:33N 38°32' W 028°38'  
Track history (hours):
 
Tides and Currents Weather Stations Pressure Air Temp Water Temp Dewpoint Dewpoint Depression Visibility Wind Speed Wind Dir Waves Ship Positions

Asolare

Last reported at 2016-May-27 09:33 UTC. Time now 2016-May-27 10:22 UTC.
Position N 39°48' E 002°42'.

Length 47 m; draft 4.9 m.

Type: Sailing vessel. MMSI: 310413000.

Date/timePositionNaut miles runAvg speedWind from/ knotsBaromVisibWave heightAir tempDewpointWater temp
2016-May-27 09:33N 39°48' E 002°42'0 0.0
2016-May-27 08:33N 39°48' E 002°42'0 0.0
2016-May-27 07:33N 39°48' E 002°42'0 0.0
2016-May-27 06:33N 39°48' E 002°42'0 0.0
2016-May-27 05:33N 39°48' E 002°42'0 0.0
2016-May-27 04:30N 39°48' E 002°42'0 0.0
2016-May-27 03:33N 39°48' E 002°42'0 0.0
2016-May-27 02:33N 39°48' E 002°42'0 0.0
2016-May-27 01:33N 39°48' E 002°42'0 0.0
2016-May-27 00:33N 39°48' E 002°42'0 0.0
2016-May-26 23:33N 39°48' E 002°42'0 0.0
2016-May-26 22:33N 39°48' E 002°42'0 0.0
2016-May-26 21:33N 39°48' E 002°42'0 0.0
2016-May-26 20:33N 39°48' E 002°42'0 0.0
2016-May-26 19:33N 39°48' E 002°42'0 0.0
2016-May-26 18:33N 39°48' E 002°42'0 0.0
2016-May-26 17:33N 39°48' E 002°42'0 0.0
2016-May-26 16:33N 39°48' E 002°42'0 0.0
2016-May-26 15:32N 39°48' E 002°42'0 0.0
2016-May-26 14:33N 39°48' E 002°42'0 0.0
2016-May-26 13:32N 39°48' E 002°42'0 0.0
2016-May-26 12:32N 39°48' E 002°42'0 0.0
2016-May-26 11:33N 39°48' E 002°42'0 0.0
2016-May-26 10:33N 39°48' E 002°42'0 0.0
2016-May-26 09:32N 39°48' E 002°42'0 0.0
2016-May-26 08:32N 39°48' E 002°42'0 0.0
2016-May-26 07:32N 39°48' E 002°42'0 0.0
2016-May-26 06:32N 39°48' E 002°42'0 0.0
2016-May-26 05:32N 39°48' E 002°42'0 0.0
2016-May-26 04:32N 39°48' E 002°42'0 0.0
2016-May-26 03:32N 39°48' E 002°42'0 0.0
2016-May-26 02:32N 39°48' E 002°42'0 0.0
2016-May-26 01:32N 39°48' E 002°42'0 0.0
2016-May-26 00:32N 39°48' E 002°42'0 0.0
2016-May-25 23:32N 39°48' E 002°42'0 0.0
2016-May-25 22:32N 39°48' E 002°42'0 0.0
2016-May-25 21:32N 39°48' E 002°42'0 0.0
2016-May-25 20:32N 39°48' E 002°42'0 0.0
2016-May-25 19:32N 39°48' E 002°42'0 0.0
2016-May-25 18:32N 39°48' E 002°42'0 0.0
2016-May-25 17:29N 39°48' E 002°42'0 0.0
2016-May-25 16:32N 39°48' E 002°42'0 0.0
2016-May-25 15:32N 39°48' E 002°42'0 0.0
2016-May-25 14:32N 39°48' E 002°42'0 0.0
2016-May-25 13:33N 39°48' E 002°42'5 5.4
2016-May-25 12:33N 39°53' E 002°40'1010.4
2016-May-25 11:33N 40°01' E 002°49'1010.3
2016-May-25 10:33N 40°08' E 002°59'9 9.2
2016-May-25 09:33N 40°15' E 002°52'1211.7
2016-May-25 08:33N 40°08' E 002°40'1212.3
2016-May-25 07:33N 39°59' E 002°28'1212.1
2016-May-25 06:33N 39°51' E 002°17'1312.1
2016-May-25 05:29N 39°42' E 002°05'1212.7
2016-May-25 04:33N 39°34' E 001°54'1413.7
2016-May-25 03:33N 39°24' E 001°41'1313.0
2016-May-25 02:33N 39°15' E 001°29'1211.8
2016-May-25 01:33N 39°07' E 001°18'3912.2
2016-May-24 22:21N 38°38' E 000°43'1011.3
2016-May-24 21:30N 38°31' E 000°35'2611.1
2016-May-24 19:11N 38°12' E 000°13'710.7
2016-May-24 18:33N 38°07' E 000°08'1111.1
2016-May-24 17:33N 37°59' W 000°02'1111.1
2016-May-24 16:32N 37°50' W 000°11'1111.1
2016-May-24 15:33N 37°42' W 000°20'1110.8
2016-May-24 14:31N 37°34' W 000°30'1410.9
2016-May-24 13:15N 37°25' W 000°43'1010.4
2016-May-24 12:19N 37°18' W 000°52'5410.7
2016-May-24 07:20N 36°43' W 001°42'3410.4
2016-May-24 04:05N 36°22' W 002°15'15010.4
2016-May-23 13:33N 36°05' W 005°21'3 0.5
2016-May-23 08:18N 36°08' W 005°22'3 4.2
2016-May-23 07:31N 36°06' W 005°19'2 1.6
2016-May-23 06:15N 36°08' W 005°20'0 0.0
2016-May-23 05:21N 36°08' W 005°20'0 0.0
2016-May-23 03:03N 36°08' W 005°19'0 0.0
2016-May-23 00:30N 36°08' W 005°19'0 0.0
2016-May-22 23:33N 36°08' W 005°19'0 0.0
2016-May-22 22:33N 36°08' W 005°19'0 0.0
2016-May-22 21:30N 36°08' W 005°19'0 0.0
2016-May-22 20:24N 36°08' W 005°19'0 0.0
2016-May-22 19:33N 36°08' W 005°20'0 0.0
2016-May-22 18:27N 36°08' W 005°20'0 0.0
2016-May-22 16:28N 36°08' W 005°19'8 9.1
2016-May-22 15:33N 36°01' W 005°24'  
2016-May-19 09:33N 38°02' W 023°33'1110.9
2016-May-19 08:33N 38°03' W 023°47'1110.9
2016-May-19 07:33N 38°04' W 024°00'1111.1
2016-May-19 06:34N 38°05' W 024°15'1111.2
2016-May-19 05:34N 38°05' W 024°29'1110.8
2016-May-19 04:34N 38°06' W 024°42'1111.0
2016-May-19 03:33N 38°07' W 024°56'1110.9
2016-May-19 02:33N 38°08' W 025°10'1111.1
2016-May-19 01:33N 38°09' W 025°24'1111.4
2016-May-19 00:33N 38°10' W 025°39'1111.2
2016-May-18 23:34N 38°11' W 025°53'1111.1
2016-May-18 22:34N 38°12' W 026°07'1110.9
2016-May-18 21:33N 38°13' W 026°21'1111.1
2016-May-18 20:33N 38°14' W 026°35'1111.0
2016-May-18 19:34N 38°16' W 026°49'1111.0
2016-May-18 18:33N 38°17' W 027°02'1110.6
2016-May-18 17:33N 38°18' W 027°16'1111.3
2016-May-18 16:33N 38°19' W 027°30'1111.3
2016-May-18 15:33N 38°20' W 027°44'1111.2
2016-May-18 14:33N 38°21' W 027°59'1211.6
2016-May-18 13:33N 38°22' W 028°13'1111.0
2016-May-18 12:34N 38°24' W 028°27'1110.7
2016-May-18 11:34N 38°32' W 028°37'0 0.5
2016-May-18 10:31N 38°32' W 028°37'0 0.0
2016-May-18 09:31N 38°32' W 028°37'0 0.0
2016-May-18 08:31N 38°32' W 028°37'0 0.0
2016-May-18 07:31N 38°32' W 028°37'0 0.2
2016-May-18 06:30N 38°32' W 028°38'0 0.0
2016-May-18 05:31N 38°32' W 028°38'0 0.0
2016-May-18 04:31N 38°32' W 028°38'0 0.0
2016-May-18 03:27N 38°32' W 028°38'0 0.0
2016-May-18 02:33N 38°32' W 028°38'0 0.0
2016-May-18 01:33N 38°32' W 028°38'0 0.0
2016-May-18 00:33N 38°32' W 028°38'0 0.0
2016-May-17 23:31N 38°32' W 028°38'0 0.0
2016-May-17 22:33N 38°32' W 028°38'0 0.0
2016-May-17 21:34N 38°32' W 028°38'0 0.0
2016-May-17 20:31N 38°32' W 028°38'0 0.0
2016-May-17 16:28N 38°32' W 028°38'0 0.0
2016-May-17 15:30N 38°32' W 028°38'0 0.0
2016-May-17 14:33N 38°32' W 028°38'0 0.0
2016-May-17 13:28N 38°32' W 028°38'0 0.0
2016-May-17 12:33N 38°32' W 028°38'0 0.0
2016-May-17 11:30N 38°32' W 028°38'0 0.0
2016-May-17 10:33N 38°32' W 028°38'0 0.0
2016-May-17 09:33N 38°32' W 028°38'  

Dump ship's entire track history